sensor_id;sensor_type;location;lat;lon;timestamp;temperature;humidity
52187;DHT22;38161;53.020;6.598;2023-06-19T00:00:08;20.90;99.90
52187;DHT22;38161;53.020;6.598;2023-06-19T00:02:39;20.80;99.90
52187;DHT22;38161;53.020;6.598;2023-06-19T00:05:06;20.90;99.90
52187;DHT22;38161;53.020;6.598;2023-06-19T00:07:34;20.80;99.90
52187;DHT22;38161;53.020;6.598;2023-06-19T00:09:59;20.80;99.90
52187;DHT22;38161;53.020;6.598;2023-06-19T00:12:25;20.80;99.90
52187;DHT22;38161;53.020;6.598;2023-06-19T00:14:51;20.80;99.90
52187;DHT22;38161;53.020;6.598;2023-06-19T00:17:17;20.80;99.90
52187;DHT22;38161;53.020;6.598;2023-06-19T00:19:43;20.80;99.90
52187;DHT22;38161;53.020;6.598;2023-06-19T00:22:09;20.70;99.90
52187;DHT22;38161;53.020;6.598;2023-06-19T00:24:35;20.80;99.90
52187;DHT22;38161;53.020;6.598;2023-06-19T00:27:04;20.70;99.90
52187;DHT22;38161;53.020;6.598;2023-06-19T00:29:30;20.70;99.90
52187;DHT22;38161;53.020;6.598;2023-06-19T00:31:55;20.70;99.90
52187;DHT22;38161;53.020;6.598;2023-06-19T00:34:21;20.70;99.90
52187;DHT22;38161;53.020;6.598;2023-06-19T00:36:50;20.70;99.90
52187;DHT22;38161;53.020;6.598;2023-06-19T00:39:17;20.70;99.90
52187;DHT22;38161;53.020;6.598;2023-06-19T00:41:43;20.70;99.90
52187;DHT22;38161;53.020;6.598;2023-06-19T00:44:09;20.70;99.90
52187;DHT22;38161;53.020;6.598;2023-06-19T00:46:35;20.60;99.90
52187;DHT22;38161;53.020;6.598;2023-06-19T00:49:03;20.60;99.90
52187;DHT22;38161;53.020;6.598;2023-06-19T00:51:29;20.60;99.90
52187;DHT22;38161;53.020;6.598;2023-06-19T00:53:55;20.60;99.90
52187;DHT22;38161;53.020;6.598;2023-06-19T00:56:21;20.60;99.90
52187;DHT22;38161;53.020;6.598;2023-06-19T00:58:47;20.60;99.90
52187;DHT22;38161;53.020;6.598;2023-06-19T01:01:13;20.50;99.90
52187;DHT22;38161;53.020;6.598;2023-06-19T01:03:39;20.50;99.90
52187;DHT22;38161;53.020;6.598;2023-06-19T01:06:13;20.50;99.90
52187;DHT22;38161;53.020;6.598;2023-06-19T01:09:01;20.50;99.90
52187;DHT22;38161;53.020;6.598;2023-06-19T01:11:30;20.50;99.90
52187;DHT22;38161;53.020;6.598;2023-06-19T01:14:06;20.50;99.90
52187;DHT22;38161;53.020;6.598;2023-06-19T01:16:33;20.40;99.90
52187;DHT22;38161;53.020;6.598;2023-06-19T01:18:59;20.50;99.90
52187;DHT22;38161;53.020;6.598;2023-06-19T01:21:26;20.40;99.90
52187;DHT22;38161;53.020;6.598;2023-06-19T01:23:52;20.50;99.90
52187;DHT22;38161;53.020;6.598;2023-06-19T01:26:19;20.40;99.90
52187;DHT22;38161;53.020;6.598;2023-06-19T01:28:45;20.40;99.90
52187;DHT22;38161;53.020;6.598;2023-06-19T01:31:25;20.40;99.90
52187;DHT22;38161;53.020;6.598;2023-06-19T01:33:53;20.40;99.90
52187;DHT22;38161;53.020;6.598;2023-06-19T01:36:20;20.40;99.90
52187;DHT22;38161;53.020;6.598;2023-06-19T01:38:48;20.40;99.90
52187;DHT22;38161;53.020;6.598;2023-06-19T01:41:15;20.40;99.90
52187;DHT22;38161;53.020;6.598;2023-06-19T01:43:42;20.30;99.90
52187;DHT22;38161;53.020;6.598;2023-06-19T01:46:07;20.30;99.90
52187;DHT22;38161;53.020;6.598;2023-06-19T01:48:35;20.30;99.90
52187;DHT22;38161;53.020;6.598;2023-06-19T01:51:04;20.30;99.90
52187;DHT22;38161;53.020;6.598;2023-06-19T01:53:31;20.20;99.90
52187;DHT22;38161;53.020;6.598;2023-06-19T01:56:01;20.20;99.90
52187;DHT22;38161;53.020;6.598;2023-06-19T01:58:27;20.20;99.90
52187;DHT22;38161;53.020;6.598;2023-06-19T02:00:52;20.20;99.90
52187;DHT22;38161;53.020;6.598;2023-06-19T02:03:18;20.10;99.90
52187;DHT22;38161;53.020;6.598;2023-06-19T02:05:44;20.10;99.90
52187;DHT22;38161;53.020;6.598;2023-06-19T02:08:10;20.10;99.90
52187;DHT22;38161;53.020;6.598;2023-06-19T02:10:36;20.10;99.90
52187;DHT22;38161;53.020;6.598;2023-06-19T02:13:02;20.10;99.90
52187;DHT22;38161;53.020;6.598;2023-06-19T02:15:27;20.10;99.90
52187;DHT22;38161;53.020;6.598;2023-06-19T02:17:55;20.10;99.90
52187;DHT22;38161;53.020;6.598;2023-06-19T02:20:22;20.10;99.90
52187;DHT22;38161;53.020;6.598;2023-06-19T02:22:50;20.10;99.90
52187;DHT22;38161;53.020;6.598;2023-06-19T02:25:15;20.00;99.90
52187;DHT22;38161;53.020;6.598;2023-06-19T02:27:41;20.00;99.90
52187;DHT22;38161;53.020;6.598;2023-06-19T02:30:07;20.00;99.90
52187;DHT22;38161;53.020;6.598;2023-06-19T02:32:33;20.00;99.90
52187;DHT22;38161;53.020;6.598;2023-06-19T02:34:59;20.00;99.90
52187;DHT22;38161;53.020;6.598;2023-06-19T02:37:25;20.00;99.90
52187;DHT22;38161;53.020;6.598;2023-06-19T02:39:51;20.00;99.90
52187;DHT22;38161;53.020;6.598;2023-06-19T02:42:16;20.00;99.90
52187;DHT22;38161;53.020;6.598;2023-06-19T02:44:42;20.00;99.90
52187;DHT22;38161;53.020;6.598;2023-06-19T02:47:09;20.00;99.90
52187;DHT22;38161;53.020;6.598;2023-06-19T02:49:35;20.00;99.90
52187;DHT22;38161;53.020;6.598;2023-06-19T02:52:00;20.00;99.90
52187;DHT22;38161;53.020;6.598;2023-06-19T02:54:26;20.10;99.90
52187;DHT22;38161;53.020;6.598;2023-06-19T02:56:52;20.10;99.90
52187;DHT22;38161;53.020;6.598;2023-06-19T02:59:18;20.10;99.90
52187;DHT22;38161;53.020;6.598;2023-06-19T03:01:44;20.10;99.90
52187;DHT22;38161;53.020;6.598;2023-06-19T03:04:10;20.10;99.90
52187;DHT22;38161;53.020;6.598;2023-06-19T03:06:36;20.10;99.90
52187;DHT22;38161;53.020;6.598;2023-06-19T03:09:06;20.20;99.90
52187;DHT22;38161;53.020;6.598;2023-06-19T03:11:41;20.20;99.90
52187;DHT22;38161;53.020;6.598;2023-06-19T03:14:07;20.30;99.90
52187;DHT22;38161;53.020;6.598;2023-06-19T03:16:34;20.30;99.90
52187;DHT22;38161;53.020;6.598;2023-06-19T03:19:01;20.30;99.90
52187;DHT22;38161;53.020;6.598;2023-06-19T03:21:26;20.30;99.90
52187;DHT22;38161;53.020;6.598;2023-06-19T03:23:52;20.30;99.90
52187;DHT22;38161;53.020;6.598;2023-06-19T03:26:19;20.40;99.90
52187;DHT22;38161;53.020;6.598;2023-06-19T03:28:45;20.40;99.90
52187;DHT22;38161;53.020;6.598;2023-06-19T03:31:14;20.50;99.90
52187;DHT22;38161;53.020;6.598;2023-06-19T03:33:41;20.50;99.90
52187;DHT22;38161;53.020;6.598;2023-06-19T03:36:07;20.50;99.90
52187;DHT22;38161;53.020;6.598;2023-06-19T03:38:33;20.50;99.90
52187;DHT22;38161;53.020;6.598;2023-06-19T03:40:58;20.50;99.90
52187;DHT22;38161;53.020;6.598;2023-06-19T03:43:24;20.50;99.90
52187;DHT22;38161;53.020;6.598;2023-06-19T03:45:50;20.60;99.90
52187;DHT22;38161;53.020;6.598;2023-06-19T03:48:16;20.60;99.90
52187;DHT22;38161;53.020;6.598;2023-06-19T03:50:43;20.70;99.90
52187;DHT22;38161;53.020;6.598;2023-06-19T03:53:08;20.70;99.90
52187;DHT22;38161;53.020;6.598;2023-06-19T03:55:34;20.70;99.90
52187;DHT22;38161;53.020;6.598;2023-06-19T03:58:00;20.80;99.90
52187;DHT22;38161;53.020;6.598;2023-06-19T04:00:26;20.80;99.90
52187;DHT22;38161;53.020;6.598;2023-06-19T04:02:52;20.80;99.90
52187;DHT22;38161;53.020;6.598;2023-06-19T04:05:18;20.80;99.90
52187;DHT22;38161;53.020;6.598;2023-06-19T04:07:45;20.80;99.90
52187;DHT22;38161;53.020;6.598;2023-06-19T04:10:11;20.80;99.90
52187;DHT22;38161;53.020;6.598;2023-06-19T04:12:40;20.80;99.90
52187;DHT22;38161;53.020;6.598;2023-06-19T04:15:09;20.80;99.90
52187;DHT22;38161;53.020;6.598;2023-06-19T04:17:36;20.80;99.90
52187;DHT22;38161;53.020;6.598;2023-06-19T04:20:03;20.80;99.90
52187;DHT22;38161;53.020;6.598;2023-06-19T04:22:40;20.90;99.90
52187;DHT22;38161;53.020;6.598;2023-06-19T04:25:10;20.80;99.90
52187;DHT22;38161;53.020;6.598;2023-06-19T04:27:36;20.80;99.90
52187;DHT22;38161;53.020;6.598;2023-06-19T04:30:03;20.80;99.90
52187;DHT22;38161;53.020;6.598;2023-06-19T04:32:30;20.80;99.90
52187;DHT22;38161;53.020;6.598;2023-06-19T04:34:55;20.80;99.90
52187;DHT22;38161;53.020;6.598;2023-06-19T04:37:21;20.80;99.90
52187;DHT22;38161;53.020;6.598;2023-06-19T04:39:47;20.70;99.90
52187;DHT22;38161;53.020;6.598;2023-06-19T04:42:13;20.70;99.90
52187;DHT22;38161;53.020;6.598;2023-06-19T04:44:48;20.70;99.90
52187;DHT22;38161;53.020;6.598;2023-06-19T04:47:17;20.70;99.90
52187;DHT22;38161;53.020;6.598;2023-06-19T04:49:46;20.70;99.90
52187;DHT22;38161;53.020;6.598;2023-06-19T04:52:12;20.70;99.90
52187;DHT22;38161;53.020;6.598;2023-06-19T04:54:38;20.70;99.90
52187;DHT22;38161;53.020;6.598;2023-06-19T04:57:04;20.70;99.90
52187;DHT22;38161;53.020;6.598;2023-06-19T04:59:30;20.70;99.90
52187;DHT22;38161;53.020;6.598;2023-06-19T05:01:56;20.70;99.90
52187;DHT22;38161;53.020;6.598;2023-06-19T05:04:23;20.70;99.90
52187;DHT22;38161;53.020;6.598;2023-06-19T05:06:51;20.70;99.90
52187;DHT22;38161;53.020;6.598;2023-06-19T05:09:17;20.70;99.90
52187;DHT22;38161;53.020;6.598;2023-06-19T05:11:43;20.70;99.90
52187;DHT22;38161;53.020;6.598;2023-06-19T05:14:09;20.70;99.90
52187;DHT22;38161;53.020;6.598;2023-06-19T05:16:35;20.70;99.90
52187;DHT22;38161;53.020;6.598;2023-06-19T05:19:00;20.70;99.90
52187;DHT22;38161;53.020;6.598;2023-06-19T05:21:26;20.70;99.90
52187;DHT22;38161;53.020;6.598;2023-06-19T05:23:52;20.70;99.90
52187;DHT22;38161;53.020;6.598;2023-06-19T05:26:19;20.70;99.90
52187;DHT22;38161;53.020;6.598;2023-06-19T05:28:49;20.80;99.90
52187;DHT22;38161;53.020;6.598;2023-06-19T05:31:15;20.80;99.90
52187;DHT22;38161;53.020;6.598;2023-06-19T05:33:41;20.80;99.90
52187;DHT22;38161;53.020;6.598;2023-06-19T05:36:07;20.80;99.90
52187;DHT22;38161;53.020;6.598;2023-06-19T05:38:33;20.80;99.90
52187;DHT22;38161;53.020;6.598;2023-06-19T05:40:59;20.90;99.90
52187;DHT22;38161;53.020;6.598;2023-06-19T05:43:25;20.90;99.90
52187;DHT22;38161;53.020;6.598;2023-06-19T05:45:53;20.80;99.90
52187;DHT22;38161;53.020;6.598;2023-06-19T05:48:19;20.80;99.90
52187;DHT22;38161;53.020;6.598;2023-06-19T05:50:45;20.90;99.90
52187;DHT22;38161;53.020;6.598;2023-06-19T05:53:11;20.90;99.90
52187;DHT22;38161;53.020;6.598;2023-06-19T05:55:37;20.90;99.90
52187;DHT22;38161;53.020;6.598;2023-06-19T05:58:03;20.80;99.90
52187;DHT22;38161;53.020;6.598;2023-06-19T06:00:30;20.90;99.90
52187;DHT22;38161;53.020;6.598;2023-06-19T06:02:56;20.90;99.90
52187;DHT22;38161;53.020;6.598;2023-06-19T06:05:25;20.90;99.90
52187;DHT22;38161;53.020;6.598;2023-06-19T06:07:55;20.90;99.90
52187;DHT22;38161;53.020;6.598;2023-06-19T06:10:23;20.90;99.90
52187;DHT22;38161;53.020;6.598;2023-06-19T06:12:52;20.90;99.90
52187;DHT22;38161;53.020;6.598;2023-06-19T06:15:18;20.90;99.90
52187;DHT22;38161;53.020;6.598;2023-06-19T06:17:44;20.90;99.90
52187;DHT22;38161;53.020;6.598;2023-06-19T06:20:10;20.90;99.90
52187;DHT22;38161;53.020;6.598;2023-06-19T06:22:41;20.90;99.90
52187;DHT22;38161;53.020;6.598;2023-06-19T06:25:08;21.00;99.90
52187;DHT22;38161;53.020;6.598;2023-06-19T06:27:35;21.00;99.90
52187;DHT22;38161;53.020;6.598;2023-06-19T06:30:02;20.90;99.90
52187;DHT22;38161;53.020;6.598;2023-06-19T06:32:28;21.00;99.90
52187;DHT22;38161;53.020;6.598;2023-06-19T06:34:54;20.90;99.90
52187;DHT22;38161;53.020;6.598;2023-06-19T06:37:20;20.90;99.90
52187;DHT22;38161;53.020;6.598;2023-06-19T06:39:49;20.90;99.90
52187;DHT22;38161;53.020;6.598;2023-06-19T06:42:16;20.90;99.90
52187;DHT22;38161;53.020;6.598;2023-06-19T06:44:42;21.00;99.90
52187;DHT22;38161;53.020;6.598;2023-06-19T06:47:08;20.90;99.90
52187;DHT22;38161;53.020;6.598;2023-06-19T06:49:34;20.90;99.90
52187;DHT22;38161;53.020;6.598;2023-06-19T06:52:07;20.90;99.90
52187;DHT22;38161;53.020;6.598;2023-06-19T06:54:33;20.90;99.90
52187;DHT22;38161;53.020;6.598;2023-06-19T06:56:59;20.90;99.90
52187;DHT22;38161;53.020;6.598;2023-06-19T06:59:26;20.90;99.90
52187;DHT22;38161;53.020;6.598;2023-06-19T07:01:53;20.80;99.90
52187;DHT22;38161;53.020;6.598;2023-06-19T07:04:20;20.80;99.90
52187;DHT22;38161;53.020;6.598;2023-06-19T07:06:46;20.80;99.90
52187;DHT22;38161;53.020;6.598;2023-06-19T07:09:12;20.80;99.90
52187;DHT22;38161;53.020;6.598;2023-06-19T07:11:38;20.80;99.90
52187;DHT22;38161;53.020;6.598;2023-06-19T07:14:03;20.80;99.90
52187;DHT22;38161;53.020;6.598;2023-06-19T07:16:29;20.70;99.90
52187;DHT22;38161;53.020;6.598;2023-06-19T07:18:55;20.70;99.90
52187;DHT22;38161;53.020;6.598;2023-06-19T07:21:21;20.70;99.90
52187;DHT22;38161;53.020;6.598;2023-06-19T07:23:47;20.70;99.90
52187;DHT22;38161;53.020;6.598;2023-06-19T07:26:14;20.70;99.90
52187;DHT22;38161;53.020;6.598;2023-06-19T07:28:41;20.60;99.90
52187;DHT22;38161;53.020;6.598;2023-06-19T07:31:06;20.70;99.90
52187;DHT22;38161;53.020;6.598;2023-06-19T07:33:34;20.70;99.90
52187;DHT22;38161;53.020;6.598;2023-06-19T07:36:00;20.70;99.90
52187;DHT22;38161;53.020;6.598;2023-06-19T07:38:27;20.70;99.90
52187;DHT22;38161;53.020;6.598;2023-06-19T07:40:53;20.70;99.90
52187;DHT22;38161;53.020;6.598;2023-06-19T07:43:20;20.70;99.90
52187;DHT22;38161;53.020;6.598;2023-06-19T07:45:49;20.70;99.90
52187;DHT22;38161;53.020;6.598;2023-06-19T07:48:15;20.70;99.90
52187;DHT22;38161;53.020;6.598;2023-06-19T07:50:41;20.70;99.90
52187;DHT22;38161;53.020;6.598;2023-06-19T07:53:07;20.70;99.90
52187;DHT22;38161;53.020;6.598;2023-06-19T07:55:33;20.70;99.90
52187;DHT22;38161;53.020;6.598;2023-06-19T07:58:02;20.70;99.90
52187;DHT22;38161;53.020;6.598;2023-06-19T08:00:28;20.60;99.90
52187;DHT22;38161;53.020;6.598;2023-06-19T08:02:54;20.60;99.90
52187;DHT22;38161;53.020;6.598;2023-06-19T08:05:20;20.60;99.90
52187;DHT22;38161;53.020;6.598;2023-06-19T08:07:45;20.60;99.90
52187;DHT22;38161;53.020;6.598;2023-06-19T08:10:11;20.60;99.90
52187;DHT22;38161;53.020;6.598;2023-06-19T08:12:37;20.60;99.90
52187;DHT22;38161;53.020;6.598;2023-06-19T08:15:03;20.60;99.90
52187;DHT22;38161;53.020;6.598;2023-06-19T08:17:29;20.60;99.90
52187;DHT22;38161;53.020;6.598;2023-06-19T08:19:55;20.50;99.90
52187;DHT22;38161;53.020;6.598;2023-06-19T08:22:20;20.60;99.90
52187;DHT22;38161;53.020;6.598;2023-06-19T08:24:47;20.50;99.90
52187;DHT22;38161;53.020;6.598;2023-06-19T08:27:13;20.50;99.90
52187;DHT22;38161;53.020;6.598;2023-06-19T08:29:39;20.60;99.90
52187;DHT22;38161;53.020;6.598;2023-06-19T08:32:05;20.50;99.90
52187;DHT22;38161;53.020;6.598;2023-06-19T08:34:31;20.60;99.90
52187;DHT22;38161;53.020;6.598;2023-06-19T08:36:57;20.50;99.90
52187;DHT22;38161;53.020;6.598;2023-06-19T08:39:23;20.60;99.90
52187;DHT22;38161;53.020;6.598;2023-06-19T08:41:48;20.60;99.90
52187;DHT22;38161;53.020;6.598;2023-06-19T08:44:14;20.60;99.90
52187;DHT22;38161;53.020;6.598;2023-06-19T08:46:40;20.60;99.90
52187;DHT22;38161;53.020;6.598;2023-06-19T08:49:08;20.60;99.90
52187;DHT22;38161;53.020;6.598;2023-06-19T08:51:36;20.60;99.90
52187;DHT22;38161;53.020;6.598;2023-06-19T08:54:04;20.50;99.90
52187;DHT22;38161;53.020;6.598;2023-06-19T08:56:33;20.50;99.90
52187;DHT22;38161;53.020;6.598;2023-06-19T08:59:16;20.50;99.90
52187;DHT22;38161;53.020;6.598;2023-06-19T09:01:53;20.50;99.90
52187;DHT22;38161;53.020;6.598;2023-06-19T09:04:24;20.40;99.90
52187;DHT22;38161;53.020;6.598;2023-06-19T09:06:51;20.40;99.90
52187;DHT22;38161;53.020;6.598;2023-06-19T09:09:19;20.40;99.90
52187;DHT22;38161;53.020;6.598;2023-06-19T09:12:08;20.30;99.90
52187;DHT22;38161;53.020;6.598;2023-06-19T09:14:45;20.30;99.90
52187;DHT22;38161;53.020;6.598;2023-06-19T09:17:20;20.40;99.90
52187;DHT22;38161;53.020;6.598;2023-06-19T09:19:53;20.40;99.90
52187;DHT22;38161;53.020;6.598;2023-06-19T09:22:22;20.60;99.90
52187;DHT22;38161;53.020;6.598;2023-06-19T09:24:48;20.70;99.90
52187;DHT22;38161;53.020;6.598;2023-06-19T09:27:17;20.80;99.90
52187;DHT22;38161;53.020;6.598;2023-06-19T09:29:45;20.90;99.90
52187;DHT22;38161;53.020;6.598;2023-06-19T09:32:20;20.90;99.90
52187;DHT22;38161;53.020;6.598;2023-06-19T09:34:47;20.90;99.90
52187;DHT22;38161;53.020;6.598;2023-06-19T09:37:16;20.90;99.90
52187;DHT22;38161;53.020;6.598;2023-06-19T09:39:46;20.90;99.90
52187;DHT22;38161;53.020;6.598;2023-06-19T09:42:15;20.90;99.90
52187;DHT22;38161;53.020;6.598;2023-06-19T09:44:42;20.90;99.90
52187;DHT22;38161;53.020;6.598;2023-06-19T09:47:17;21.00;99.90
52187;DHT22;38161;53.020;6.598;2023-06-19T09:49:54;21.00;99.90
52187;DHT22;38161;53.020;6.598;2023-06-19T09:52:21;21.10;99.90
52187;DHT22;38161;53.020;6.598;2023-06-19T09:54:52;21.10;99.90
52187;DHT22;38161;53.020;6.598;2023-06-19T09:57:18;21.10;99.90
52187;DHT22;38161;53.020;6.598;2023-06-19T09:59:50;21.20;99.90
52187;DHT22;38161;53.020;6.598;2023-06-19T10:02:19;21.20;99.90
52187;DHT22;38161;53.020;6.598;2023-06-19T10:04:56;21.30;99.90
52187;DHT22;38161;53.020;6.598;2023-06-19T10:07:26;21.20;99.90
52187;DHT22;38161;53.020;6.598;2023-06-19T10:12:45;21.30;99.90
52187;DHT22;38161;53.020;6.598;2023-06-19T10:18:02;21.30;99.90
52187;DHT22;38161;53.020;6.598;2023-06-19T10:20:38;21.30;99.90
52187;DHT22;38161;53.020;6.598;2023-06-19T10:25:38;21.30;99.90
52187;DHT22;38161;53.020;6.598;2023-06-19T10:28:15;21.40;99.90
52187;DHT22;38161;53.020;6.598;2023-06-19T10:30:41;21.40;99.90
52187;DHT22;38161;53.020;6.598;2023-06-19T10:33:07;21.40;99.90
52187;DHT22;38161;53.020;6.598;2023-06-19T10:35:40;21.50;99.90
52187;DHT22;38161;53.020;6.598;2023-06-19T10:38:09;21.50;99.90
52187;DHT22;38161;53.020;6.598;2023-06-19T10:40:39;21.60;99.90
52187;DHT22;38161;53.020;6.598;2023-06-19T10:43:05;21.60;99.90
52187;DHT22;38161;53.020;6.598;2023-06-19T10:45:31;21.70;99.90
52187;DHT22;38161;53.020;6.598;2023-06-19T10:48:00;21.80;99.90
52187;DHT22;38161;53.020;6.598;2023-06-19T10:50:26;21.80;99.90
52187;DHT22;38161;53.020;6.598;2023-06-19T10:52:53;21.80;99.90
52187;DHT22;38161;53.020;6.598;2023-06-19T10:55:21;21.80;99.90
52187;DHT22;38161;53.020;6.598;2023-06-19T10:57:48;21.80;99.90
52187;DHT22;38161;53.020;6.598;2023-06-19T11:00:29;21.80;99.90
52187;DHT22;38161;53.020;6.598;2023-06-19T11:02:56;21.80;99.90
52187;DHT22;38161;53.020;6.598;2023-06-19T11:05:23;21.70;99.90
52187;DHT22;38161;53.020;6.598;2023-06-19T11:07:58;21.70;99.90
52187;DHT22;38161;53.020;6.598;2023-06-19T11:10:27;21.70;99.90
52187;DHT22;38161;53.020;6.598;2023-06-19T11:12:57;21.80;99.90
52187;DHT22;38161;53.020;6.598;2023-06-19T11:15:41;21.80;99.90
52187;DHT22;38161;53.020;6.598;2023-06-19T11:18:07;21.90;99.90
52187;DHT22;38161;53.020;6.598;2023-06-19T11:20:50;21.90;99.90
52187;DHT22;38161;53.020;6.598;2023-06-19T11:23:26;22.00;99.90
52187;DHT22;38161;53.020;6.598;2023-06-19T11:25:52;22.10;99.90
52187;DHT22;38161;53.020;6.598;2023-06-19T11:28:18;22.10;99.90
52187;DHT22;38161;53.020;6.598;2023-06-19T11:30:48;22.10;99.90
52187;DHT22;38161;53.020;6.598;2023-06-19T11:33:23;22.30;99.90
52187;DHT22;38161;53.020;6.598;2023-06-19T11:35:53;22.50;99.90
52187;DHT22;38161;53.020;6.598;2023-06-19T11:38:25;22.70;99.90
52187;DHT22;38161;53.020;6.598;2023-06-19T11:40:52;22.80;99.90
52187;DHT22;38161;53.020;6.598;2023-06-19T11:43:29;22.90;99.90
52187;DHT22;38161;53.020;6.598;2023-06-19T11:46:03;22.90;99.90
52187;DHT22;38161;53.020;6.598;2023-06-19T11:48:30;22.80;99.90
52187;DHT22;38161;53.020;6.598;2023-06-19T11:50:56;22.80;99.90
52187;DHT22;38161;53.020;6.598;2023-06-19T11:53:22;22.80;99.90
52187;DHT22;38161;53.020;6.598;2023-06-19T11:55:50;22.90;99.90
52187;DHT22;38161;53.020;6.598;2023-06-19T11:58:16;23.00;99.90
52187;DHT22;38161;53.020;6.598;2023-06-19T12:00:43;23.10;99.90
52187;DHT22;38161;53.020;6.598;2023-06-19T12:03:09;23.10;99.90
52187;DHT22;38161;53.020;6.598;2023-06-19T12:05:36;23.10;99.90
52187;DHT22;38161;53.020;6.598;2023-06-19T12:08:02;23.10;99.90
52187;DHT22;38161;53.020;6.598;2023-06-19T12:10:29;23.10;99.90
52187;DHT22;38161;53.020;6.598;2023-06-19T12:12:55;23.10;99.90
52187;DHT22;38161;53.020;6.598;2023-06-19T12:15:21;23.00;99.90
52187;DHT22;38161;53.020;6.598;2023-06-19T12:17:48;23.00;99.90
52187;DHT22;38161;53.020;6.598;2023-06-19T12:20:14;23.10;99.90
52187;DHT22;38161;53.020;6.598;2023-06-19T12:22:40;23.20;99.90
52187;DHT22;38161;53.020;6.598;2023-06-19T12:25:07;23.20;99.90
52187;DHT22;38161;53.020;6.598;2023-06-19T12:27:33;23.30;99.90
52187;DHT22;38161;53.020;6.598;2023-06-19T12:29:59;23.30;99.90
52187;DHT22;38161;53.020;6.598;2023-06-19T12:32:24;23.30;99.90
52187;DHT22;38161;53.020;6.598;2023-06-19T12:34:51;23.20;99.90
52187;DHT22;38161;53.020;6.598;2023-06-19T12:37:20;23.30;99.90
52187;DHT22;38161;53.020;6.598;2023-06-19T12:39:47;23.30;99.90
52187;DHT22;38161;53.020;6.598;2023-06-19T12:42:13;23.30;99.90
52187;DHT22;38161;53.020;6.598;2023-06-19T12:44:40;23.50;99.90
52187;DHT22;38161;53.020;6.598;2023-06-19T12:47:09;23.60;99.90
52187;DHT22;38161;53.020;6.598;2023-06-19T12:49:38;23.50;99.90
52187;DHT22;38161;53.020;6.598;2023-06-19T12:52:04;23.60;99.90
52187;DHT22;38161;53.020;6.598;2023-06-19T12:54:31;23.60;99.90
52187;DHT22;38161;53.020;6.598;2023-06-19T12:56:57;23.70;99.90
52187;DHT22;38161;53.020;6.598;2023-06-19T12:59:23;23.80;99.90
52187;DHT22;38161;53.020;6.598;2023-06-19T13:01:51;24.00;99.90
52187;DHT22;38161;53.020;6.598;2023-06-19T13:04:17;24.10;99.90
52187;DHT22;38161;53.020;6.598;2023-06-19T13:06:43;24.00;99.90
52187;DHT22;38161;53.020;6.598;2023-06-19T13:09:09;24.00;99.90
52187;DHT22;38161;53.020;6.598;2023-06-19T13:11:34;24.10;99.90
52187;DHT22;38161;53.020;6.598;2023-06-19T13:14:01;24.10;99.90
52187;DHT22;38161;53.020;6.598;2023-06-19T13:16:27;24.20;99.90
52187;DHT22;38161;53.020;6.598;2023-06-19T13:18:53;24.20;99.90
52187;DHT22;38161;53.020;6.598;2023-06-19T13:21:19;24.30;99.90
52187;DHT22;38161;53.020;6.598;2023-06-19T13:23:45;24.40;99.90
52187;DHT22;38161;53.020;6.598;2023-06-19T13:26:11;24.40;99.90
52187;DHT22;38161;53.020;6.598;2023-06-19T13:28:37;24.30;99.90
52187;DHT22;38161;53.020;6.598;2023-06-19T13:31:03;24.30;99.90
52187;DHT22;38161;53.020;6.598;2023-06-19T13:33:29;24.40;99.90
52187;DHT22;38161;53.020;6.598;2023-06-19T13:35:55;24.50;99.90
52187;DHT22;38161;53.020;6.598;2023-06-19T13:38:21;24.60;99.90
52187;DHT22;38161;53.020;6.598;2023-06-19T13:40:48;24.80;99.90
52187;DHT22;38161;53.020;6.598;2023-06-19T13:43:14;24.90;99.90
52187;DHT22;38161;53.020;6.598;2023-06-19T13:45:43;25.00;99.90
52187;DHT22;38161;53.020;6.598;2023-06-19T13:48:09;25.20;99.90
52187;DHT22;38161;53.020;6.598;2023-06-19T13:50:35;25.10;99.90
52187;DHT22;38161;53.020;6.598;2023-06-19T13:53:01;25.10;99.90
52187;DHT22;38161;53.020;6.598;2023-06-19T13:55:28;25.20;99.90
52187;DHT22;38161;53.020;6.598;2023-06-19T13:57:54;25.20;99.90
52187;DHT22;38161;53.020;6.598;2023-06-19T14:00:20;25.30;99.90
52187;DHT22;38161;53.020;6.598;2023-06-19T14:02:46;25.40;99.90
52187;DHT22;38161;53.020;6.598;2023-06-19T14:05:11;25.40;99.90
52187;DHT22;38161;53.020;6.598;2023-06-19T14:07:40;25.40;99.90
52187;DHT22;38161;53.020;6.598;2023-06-19T14:10:08;25.40;99.90
52187;DHT22;38161;53.020;6.598;2023-06-19T14:12:34;25.50;99.90
52187;DHT22;38161;53.020;6.598;2023-06-19T14:15:00;25.50;99.90
52187;DHT22;38161;53.020;6.598;2023-06-19T14:17:26;25.50;99.90
52187;DHT22;38161;53.020;6.598;2023-06-19T14:19:52;25.50;99.90
52187;DHT22;38161;53.020;6.598;2023-06-19T14:22:18;25.50;99.90
52187;DHT22;38161;53.020;6.598;2023-06-19T14:24:44;25.50;99.90
52187;DHT22;38161;53.020;6.598;2023-06-19T14:27:11;25.50;99.90
52187;DHT22;38161;53.020;6.598;2023-06-19T14:29:38;25.50;99.90
52187;DHT22;38161;53.020;6.598;2023-06-19T14:32:04;25.50;99.90
52187;DHT22;38161;53.020;6.598;2023-06-19T14:34:30;25.50;99.90
52187;DHT22;38161;53.020;6.598;2023-06-19T14:36:56;25.40;99.90
52187;DHT22;38161;53.020;6.598;2023-06-19T14:39:22;25.30;99.90
52187;DHT22;38161;53.020;6.598;2023-06-19T14:41:49;25.20;99.90
52187;DHT22;38161;53.020;6.598;2023-06-19T14:44:14;25.20;99.90
52187;DHT22;38161;53.020;6.598;2023-06-19T14:46:41;25.30;99.90
52187;DHT22;38161;53.020;6.598;2023-06-19T14:49:07;25.30;99.90
52187;DHT22;38161;53.020;6.598;2023-06-19T14:51:33;25.40;99.90
52187;DHT22;38161;53.020;6.598;2023-06-19T14:54:00;25.40;99.90
52187;DHT22;38161;53.020;6.598;2023-06-19T14:56:26;25.40;99.90
52187;DHT22;38161;53.020;6.598;2023-06-19T14:58:52;25.40;99.90
52187;DHT22;38161;53.020;6.598;2023-06-19T15:01:17;25.30;99.90
52187;DHT22;38161;53.020;6.598;2023-06-19T15:03:43;25.40;99.90
52187;DHT22;38161;53.020;6.598;2023-06-19T15:06:09;25.20;99.20
52187;DHT22;38161;53.020;6.598;2023-06-19T15:08:35;25.20;99.90
52187;DHT22;38161;53.020;6.598;2023-06-19T15:11:03;25.20;99.90
52187;DHT22;38161;53.020;6.598;2023-06-19T15:13:30;25.10;99.90
52187;DHT22;38161;53.020;6.598;2023-06-19T15:15:56;25.00;97.70
52187;DHT22;38161;53.020;6.598;2023-06-19T15:18:22;24.80;99.40
52187;DHT22;38161;53.020;6.598;2023-06-19T15:20:47;24.80;99.70
52187;DHT22;38161;53.020;6.598;2023-06-19T15:23:13;24.80;99.60
52187;DHT22;38161;53.020;6.598;2023-06-19T15:25:39;24.80;99.90
52187;DHT22;38161;53.020;6.598;2023-06-19T15:28:05;24.80;99.40
52187;DHT22;38161;53.020;6.598;2023-06-19T15:30:31;24.80;99.90
52187;DHT22;38161;53.020;6.598;2023-06-19T15:32:56;24.80;98.60
52187;DHT22;38161;53.020;6.598;2023-06-19T15:35:22;24.80;99.90
52187;DHT22;38161;53.020;6.598;2023-06-19T15:37:48;24.90;99.90